Date,TemperatureHighF,TemperatureAvgF,TemperatureLowF,DewpointHighF,DewpointAvgF,DewpointLowF,HumidityHigh,HumidityAvg,HumidityLow,PressureMaxIn,PressureMinIn,WindSpeedMaxMPH,WindSpeedAvgMPH,GustSpeedMaxMPH,PrecipitationSumIn
2013-1-1,20.7,4.1,-13.3,18.0,0.2,-18.2,92,83,78,30.39,30.04,8,0,8,0.00
2013-1-2,22.4,20.7,17.3,20.3,17.9,14.1,92,89,84,30.19,29.96,14,1,14,0.00
2013-1-3,18.2,14.4,7.9,14.3,10.2,4.1,88,83,72,30.33,30.04,15,2,15,0.00
2013-1-4,34.4,21.6,12.4,23.5,16.3,9.2,92,80,63,30.18,30.01,13,0,13,0.01
2013-1-5,24.9,16.0,5.5,20.4,12.6,1.9,90,86,78,30.12,29.95,8,0,8,0.00
2013-1-6,25.3,15.6,7.5,15.9,9.3,3.8,87,76,56,30.29,29.96,10,1,10,0.00
2013-1-7,37.9,26.9,15.9,28.1,21.1,12.6,89,79,65,29.98,29.83,15,2,15,0.03
2013-1-8,33.5,23.5,9.7,27.5,19.9,6.3,92,86,73,30.01,29.75,12,1,12,0.00
2013-1-9,33.9,28.7,21.9,27.4,21.7,17.6,85,75,63,30.35,29.82,24,3,24,0.00
2013-1-10,45.2,35.3,22.1,32.2,26.3,18.3,94,72,42,30.27,29.70,16,2,16,0.01
2013-1-11,36.4,35.1,33.7,35.4,34.0,32.2,96,96,94,29.70,29.35,7,0,7,0.00
2013-1-12,34.4,15.6,3.9,33.4,11.1,-1.2,96,82,73,30.19,29.33,14,3,14,0.00
2013-1-13,11.7,4.7,-1.3,4.3,-0.4,-5.7,92,79,70,30.30,30.16,9,1,9,0.00
2013-1-14,13.5,7.8,1.9,5.0,1.8,-2.3,92,76,64,30.46,30.30,11,1,11,0.00
2013-1-15,26.6,16.3,6.2,15.1,9.1,2.6,87,74,51,30.33,29.71,18,2,18,0.00
2013-1-16,30.7,20.0,4.5,28.1,11.0,-7.0,93,69,40,30.37,29.62,16,3,16,0.00
2013-1-17,15.1,7.2,2.7,5.1,-0.5,-8.4,82,70,58,30.48,30.33,10,0,10,0.00
2013-1-18,29.3,19.3,8.7,22.7,15.3,3.8,90,84,74,30.34,29.78,6,0,6,0.00
2013-1-19,32.0,16.0,-0.4,28.0,10.8,-6.7,94,80,66,30.33,29.73,24,5,25,0.00
2013-1-20,4.5,-2.4,-7.4,-2.8,-8.8,-14.5,79,74,66,30.51,30.33,11,2,12,0.00
2013-1-21,-4.1,-10.0,-14.7,-14.0,-17.5,-20.6,75,69,60,30.46,30.39,13,1,13,0.00
2013-1-22,1.6,-7.3,-19.2,-5.6,-14.2,-24.7,78,71,60,30.52,30.33,11,0,11,0.00
2013-1-23,7.5,0.6,-10.7,4.6,-7.4,-18.9,92,69,53,30.78,30.24,22,3,22,0.00
2013-1-24,8.0,-2.9,-12.1,0.9,-11.3,-19.4,77,66,57,30.82,30.21,10,0,10,0.00
2013-1-25,14.3,9.8,0.2,10.4,2.9,-5.3,84,73,65,30.44,29.97,16,2,16,0.00
2013-1-26,16.1,6.6,-5.8,8.8,0.0,-10.6,83,74,59,30.45,30.19,9,0,9,0.00
2013-1-27,31.5,24.2,13.2,28.1,18.2,8.5,92,78,65,30.19,29.87,7,0,7,0.00
2013-1-28,34.1,31.5,28.7,32.6,29.9,26.9,96,94,92,29.91,29.71,7,0,7,0.00
2013-1-29,32.9,29.2,23.1,31.9,26.5,19.1,96,89,81,29.88,29.59,15,1,15,0.00
2013-1-30,23.1,12.5,5.0,19.5,7.2,-0.4,92,79,72,29.87,29.79,15,4,15,0.00
2013-1-31,4.9,-1.6,-11.9,-0.2,-8.2,-18.2,80,73,66,30.39,29.87,18,5,18,0.00
2013-2-1,0.9,-7.6,-17.3,-5.6,-14.3,-22.6,77,72,56,30.42,30.22,8,0,8,0.00
2013-2-2,9.7,2.8,-9.2,3.6,-2.9,-13.9,84,77,62,30.31,30.09,8,0,8,0.00
2013-2-3,13.4,8.3,4.2,3.8,0.7,-4.1,81,71,58,30.17,30.07,11,1,11,0.00
2013-2-4,13.9,5.5,-5.6,9.4,-1.8,-10.6,85,72,57,30.19,29.75,11,0,11,0.00
2013-2-5,22.1,16.9,9.7,19.4,10.0,2.3,90,75,52,30.14,29.68,15,1,15,0.00
2013-2-6,22.4,18.1,11.9,19.0,13.8,6.6,92,83,72,30.16,30.01,8,0,8,0.00
2013-2-7,27.2,21.2,8.7,22.4,17.3,5.0,92,85,71,30.40,30.15,11,0,11,0.00
2013-2-8,28.4,14.6,-0.3,19.0,9.0,-4.2,90,78,64,30.48,30.22,9,0,9,0.03
2013-2-9,29.3,26.4,20.2,27.8,23.7,14.4,94,90,78,30.22,29.96,15,1,15,0.00
2013-2-10,29.4,27.5,26.0,27.9,25.8,23.9,94,93,91,29.96,29.47,14,2,14,0.00
2013-2-11,27.6,21.7,11.9,25.3,18.0,9.0,91,85,80,30.07,29.49,20,4,20,0.00
2013-2-12,34.4,22.6,8.0,25.0,17.4,4.6,90,81,65,30.07,29.81,11,1,11,0.01
2013-2-13,37.9,29.6,20.0,31.0,25.1,17.8,93,83,69,29.81,29.64,6,0,6,0.13
2013-2-14,28.4,20.6,10.5,25.6,12.0,2.2,90,70,46,30.28,29.73,14,2,14,0.00
2013-2-15,18.8,9.7,1.4,5.4,1.9,-2.5,84,71,52,30.42,30.28,13,1,13,0.00
2013-2-16,23.4,12.2,5.6,8.0,4.7,1.5,92,72,49,30.33,30.16,6,0,6,0.00
2013-2-17,30.9,21.3,8.5,21.6,14.6,3.1,84,75,64,30.16,29.64,13,1,13,0.00
2013-2-18,28.9,20.4,5.9,25.1,15.3,-0.7,92,80,74,29.98,29.55,21,3,21,0.00
2013-2-19,7.3,2.6,-1.4,-0.4,-5.3,-7.7,77,69,58,30.54,29.97,24,5,24,0.00
2013-2-20,21.9,6.6,-7.7,5.3,-3.5,-12.5,80,64,43,30.62,30.51,9,0,9,0.00
2013-2-21,24.8,13.4,-2.2,18.3,4.0,-10.0,90,66,51,30.61,30.25,13,1,13,0.00
2013-2-22,26.5,23.3,20.4,22.9,20.8,18.2,92,90,83,30.25,29.93,6,0,6,0.00
2013-2-23,33.9,23.8,12.6,25.1,20.2,10.0,93,87,68,30.02,29.90,5,0,5,0.03
2013-2-24,34.6,19.2,5.2,24.2,14.1,1.7,90,81,62,30.16,30.02,9,0,9,0.03
2013-2-25,34.4,21.4,9.5,25.3,16.7,6.4,91,82,67,30.19,30.10,11,0,11,0.04
2013-2-26,41.4,23.8,10.2,27.1,17.1,7.1,99,77,50,30.16,30.04,8,0,8,0.05
2013-2-27,44.5,31.5,20.9,27.4,21.3,15.0,84,67,41,30.14,29.98,13,1,13,0.01
2013-2-28,32.6,28.0,22.9,22.5,19.3,15.3,78,70,55,30.35,30.14,15,1,15,0.00
2013-3-1,33.0,22.6,10.7,17.1,11.6,5.0,80,63,40,30.47,30.34,9,0,9,0.00
2013-3-2,31.6,17.4,-1.8,13.7,6.9,-6.4,85,65,42,30.47,30.21,9,1,9,0.00
2013-3-3,33.9,26.7,17.9,15.4,11.1,4.7,76,53,32,30.20,30.04,10,1,10,0.00
2013-3-4,28.6,25.7,23.4,22.5,17.5,10.6,91,72,56,30.11,30.00,19,1,19,0.00
2013-3-5,29.7,25.3,18.3,25.4,22.3,15.4,92,88,79,30.41,30.08,10,0,10,0.01
2013-3-6,29.3,20.8,8.9,17.8,14.6,5.3,90,77,58,30.51,30.40,8,1,8,0.02
2013-3-7,33.5,18.8,-0.5,18.8,10.3,-5.1,92,70,51,30.50,30.34,10,1,10,0.05
2013-3-8,38.2,27.6,18.8,28.6,21.1,13.0,85,77,64,30.36,30.24,10,0,10,0.04
2013-3-9,34.4,33.7,32.4,33.1,32.4,30.8,95,95,94,29.89,29.76,0,0,0,0.10
2013-3-10,32.5,27.6,23.6,31.0,24.7,19.8,94,89,84,30.13,29.89,11,0,11,0.01
2013-3-11,28.3,22.9,18.7,22.1,18.7,15.1,92,84,75,30.09,29.84,7,0,8,0.00
2013-3-12,26.9,20.4,13.0,17.5,12.7,8.1,90,73,55,30.30,29.89,15,2,15,0.00
2013-3-13,33.1,20.0,6.6,20.0,12.8,3.5,89,75,52,30.45,30.27,10,1,10,0.01
2013-3-14,41.2,30.4,22.8,31.3,25.0,16.8,92,81,65,30.29,30.05,9,1,11,0.30
2013-3-15,31.7,28.0,20.6,27.5,22.7,16.0,92,81,57,30.07,29.96,10,1,10,0.01
2013-3-16,22.1,13.6,3.7,17.4,6.1,-3.3,88,72,55,30.39,30.06,14,1,14,0.00
2013-3-17,23.7,10.9,-9.5,16.1,0.8,-14.7,84,65,46,30.41,29.89,14,1,14,0.00
2013-3-18,28.5,20.5,10.4,26.6,16.1,4.9,93,83,73,29.93,29.54,19,4,19,0.00
2013-3-19,21.6,12.0,3.3,7.2,1.5,-4.3,81,64,41,30.29,29.87,21,5,21,0.00
2013-3-20,22.9,12.0,2.2,7.9,0.9,-5.5,76,61,50,30.32,30.20,16,3,19,0.00
2013-3-21,29.3,14.1,-3.7,12.0,4.3,-8.3,84,66,46,30.25,30.14,6,0,6,0.00
2013-3-22,38.0,20.5,0.1,18.5,8.9,-4.3,85,63,36,30.20,30.10,7,0,7,0.01
2013-3-23,41.7,28.4,13.4,24.7,17.2,8.4,83,64,41,30.23,30.14,7,0,7,0.00
2013-3-24,36.6,31.0,27.5,26.8,23.5,19.7,89,74,59,30.18,30.09,12,1,12,0.00
2013-3-25,37.2,29.1,20.7,21.3,18.0,13.8,76,64,47,30.32,30.16,14,2,14,0.00
2013-3-26,42.9,31.4,21.1,24.8,19.4,15.9,81,63,39,30.37,30.30,7,0,7,0.00
2013-3-27,45.1,34.5,26.8,24.2,19.8,16.6,72,56,33,30.38,30.33,9,1,9,0.00
2013-3-28,45.9,32.7,16.9,24.2,19.6,13.4,87,61,37,30.40,30.31,12,1,12,0.00
2013-3-29,51.9,39.5,27.4,37.1,30.4,20.5,85,71,53,30.32,30.03,10,1,10,0.00
2013-3-30,52.0,42.7,34.3,40.7,35.8,29.4,100,78,50,30.05,29.85,9,1,9,0.08
2013-3-31,34.4,30.5,20.0,31.2,20.3,11.6,92,67,46,30.19,29.79,16,5,20,0.00
2013-4-1,33.9,23.7,14.5,15.3,12.1,9.5,81,63,37,30.33,30.19,14,2,15,0.00
2013-4-2,37.3,26.2,16.3,16.7,14.1,11.7,92,62,37,30.42,30.30,10,1,10,0.00
2013-4-3,43.4,31.3,14.3,34.3,20.2,9.8,83,65,40,30.43,29.94,15,2,18,0.00
2013-4-4,42.1,37.0,28.7,34.4,26.6,19.6,87,67,42,30.26,29.94,16,3,16,0.00
2013-4-5,39.3,30.8,18.6,28.1,20.4,15.4,89,67,42,30.33,29.94,11,1,11,0.00
2013-4-6,37.2,35.5,33.2,34.6,32.0,27.9,93,87,81,29.98,29.65,13,1,13,0.07
2013-4-7,44.9,37.5,33.7,33.9,30.7,28.9,92,77,60,29.96,29.80,10,1,10,0.01
2013-4-8,42.6,37.5,34.9,38.2,34.4,28.1,95,89,72,30.17,29.80,10,1,10,0.00
2013-4-9,38.6,32.1,23.0,28.6,20.6,15.0,78,63,46,30.29,30.14,13,2,14,0.00
2013-4-10,44.0,36.8,30.6,21.8,18.5,16.1,59,48,33,30.31,30.05,11,2,14,0.00
2013-4-11,35.9,31.2,28.3,29.6,24.9,15.6,94,79,45,30.07,29.85,16,2,16,0.07
2013-4-12,34.2,30.1,27.5,28.8,26.8,25.0,93,88,75,29.91,29.81,11,1,11,0.01
2013-4-13,37.8,30.1,24.6,26.4,23.2,20.2,93,77,50,30.03,29.88,6,0,6,0.00
2013-4-14,38.2,30.0,21.2,31.6,24.8,17.9,95,82,54,30.03,29.51,21,2,22,0.00
2013-4-15,38.6,34.7,32.3,34.4,32.3,30.2,96,91,81,29.95,29.45,18,3,18,0.28
2013-4-16,41.1,36.4,32.3,31.6,28.6,25.0,89,74,59,30.39,29.95,14,1,14,0.03
2013-4-17,40.6,35.9,32.0,31.6,28.8,25.0,94,76,64,30.41,30.10,10,1,10,0.00
2013-4-18,33.9,31.9,30.5,31.6,29.9,29.0,95,92,84,30.11,29.69,15,2,15,0.01
2013-4-19,36.2,31.0,25.2,29.3,22.8,7.3,95,74,41,30.07,29.65,21,4,21,0.00
2013-4-20,41.1,29.2,13.0,18.2,13.5,7.5,90,55,27,30.34,30.07,11,1,11,0.00
2013-4-21,41.9,36.1,28.7,37.6,29.8,15.8,95,78,56,30.33,30.04,13,1,13,0.11
2013-4-22,38.0,34.4,28.4,31.7,26.0,22.8,91,72,56,30.34,30.17,13,2,13,0.01
2013-4-23,41.7,33.2,24.2,24.8,20.2,14.4,76,60,36,30.26,30.09,11,2,11,0.00
2013-4-24,41.4,32.8,23.4,33.1,26.4,19.6,91,78,61,30.09,29.93,11,1,11,0.01
2013-4-25,46.0,37.5,28.5,30.9,27.4,23.9,89,69,44,30.20,30.02,14,1,14,0.00
2013-4-26,67.2,50.7,35.8,39.4,33.9,29.5,84,56,28,30.14,29.96,6,0,6,0.00
2013-4-27,71.5,54.1,36.0,38.8,33.7,29.9,79,51,29,30.14,29.79,14,1,14,0.00
2013-4-28,63.6,63.6,63.6,35.5,35.5,35.5,35,35,35,29.79,29.67,0,0,0,0.00
2013-4-29,70.6,63.7,50.8,36.3,33.4,23.9,55,33,21,29.85,29.52,7,0,7,0.00
2013-4-30,64.1,59.3,52.4,45.3,34.8,28.9,68,41,30,29.97,29.28,18,4,22,0.00
2013-5-1,52.4,46.2,36.4,35.8,31.1,21.0,63,56,51,30.60,29.96,11,6,11,0.00
2013-5-2,39.6,36.7,29.9,27.3,25.7,18.1,79,64,57,30.67,30.54,15,3,15,0.00
2013-5-3,46.4,40.3,33.8,26.5,24.9,22.7,66,55,41,30.54,30.20,11,1,11,0.00
2013-5-4,43.9,40.6,34.6,38.2,32.6,26.5,94,76,50,30.28,30.19,11,1,11,0.00
2013-5-5,57.1,46.5,37.8,44.5,40.0,36.2,94,79,61,30.27,30.11,9,2,9,0.00
2013-5-6,73.1,59.8,37.2,50.1,45.6,28.9,96,61,40,30.19,29.97,12,2,12,0.00
2013-5-7,76.5,67.6,42.3,51.2,47.0,25.4,93,50,32,30.08,29.90,12,1,12,0.00
2013-5-8,71.2,62.3,46.3,56.8,49.9,41.7,92,68,39,30.04,29.90,4,0,8,0.04
2013-5-9,58.5,54.8,48.3,55.0,47.3,41.7,88,76,63,30.20,30.00,13,1,13,0.00
2013-5-10,64.5,56.5,44.0,42.3,35.2,26.1,67,48,25,30.21,29.86,12,1,12,0.00
2013-5-11,61.9,48.2,36.3,33.7,28.5,24.8,90,49,31,30.24,30.00,22,5,22,0.00
2013-5-12,56.9,48.7,40.1,26.0,23.1,18.8,54,38,23,30.28,30.08,12,4,12,0.00
2013-5-13,71.9,58.4,41.6,43.6,32.8,21.9,62,39,29,30.12,29.62,14,1,14,0.02
2013-5-14,88.3,70.2,48.5,63.0,44.9,36.4,85,44,18,29.77,29.38,26,3,26,0.00
2013-5-15,77.8,71.6,52.2,47.0,42.2,27.3,78,36,24,29.89,29.65,9,3,10,0.00
2013-5-16,80.3,73.3,51.5,42.1,38.3,34.3,69,29,20,29.95,29.80,8,0,8,0.00
2013-5-17,73.2,67.1,51.2,51.8,42.1,19.2,62,42,28,30.03,29.87,14,1,14,0.00
2013-5-18,71.7,64.9,55.7,65.2,60.0,48.3,97,85,55,29.96,29.79,6,0,6,0.00
2013-5-19,80.0,70.2,60.2,65.9,62.6,56.3,97,78,60,29.82,29.56,9,1,9,0.02
2013-5-20,77.5,60.7,49.9,63.9,55.6,49.1,100,85,63,29.64,29.49,15,1,15,0.30
2013-5-21,55.7,51.4,47.4,50.4,48.8,46.3,97,91,78,29.81,29.58,12,2,12,0.00
2013-5-22,61.6,52.8,46.3,52.7,48.1,43.2,96,85,69,30.09,29.78,11,1,11,0.08
2013-5-23,67.8,58.7,45.0,46.6,36.1,26.1,84,47,22,30.31,30.08,10,0,10,0.00
2013-5-24,68.0,61.6,41.1,39.4,34.4,13.1,76,37,29,30.39,30.19,11,0,11,0.00
2013-5-25,68.6,62.5,53.8,51.8,45.8,30.0,88,56,40,30.24,30.16,12,1,12,0.00
2013-5-26,71.1,62.1,45.7,48.5,42.3,33.4,79,50,29,30.25,30.02,13,1,13,0.00
2013-5-27,63.2,60.0,49.2,54.0,47.9,30.9,80,65,49,30.04,29.84,9,0,9,0.00
2013-5-28,68.6,62.1,55.0,57.0,54.4,48.6,89,76,63,29.84,29.68,9,0,9,0.00
2013-5-29,65.8,63.0,55.7,62.1,58.8,49.0,95,87,77,29.78,29.61,10,0,10,0.12
2013-5-30,78.0,68.0,63.2,66.6,62.6,61.2,98,84,58,29.64,29.46,10,0,10,0.00
2013-5-31,71.3,68.3,60.5,61.8,57.3,52.1,97,68,56,29.52,29.41,7,1,15,0.00
2013-6-1,67.3,62.2,59.0,57.0,55.8,53.4,90,81,61,30.00,29.51,4,1,4,0.00
2013-6-2,70.8,61.4,45.5,57.0,47.2,39.7,90,63,34,30.11,29.96,6,0,6,0.00
2013-6-3,69.3,62.4,43.0,45.5,43.5,28.2,90,51,34,30.09,29.95,6,0,6,0.00
2013-6-4,62.5,58.9,52.1,53.6,48.2,35.6,86,68,53,30.09,29.99,9,0,9,0.00
2013-6-5,59.0,56.0,52.6,54.3,52.4,46.3,97,88,79,30.08,29.99,7,0,7,0.01
2013-6-6,57.7,54.8,48.3,51.8,50.3,46.1,94,85,74,30.08,30.03,5,0,5,0.00
2013-6-7,68.8,59.0,44.3,52.8,50.3,38.1,97,74,53,30.08,29.92,5,0,5,0.00
2013-6-8,75.8,66.0,48.9,57.6,53.5,47.6,97,65,45,29.93,29.83,9,0,9,0.00
2013-6-9,65.7,59.3,54.1,55.5,54.6,52.4,96,85,68,29.90,29.83,7,0,7,0.00
2013-6-10,71.6,62.5,56.4,61.0,57.4,54.7,98,84,63,29.86,29.79,6,0,6,0.00
2013-6-11,83.8,72.6,59.8,63.8,55.3,44.0,98,59,28,29.87,29.78,5,0,5,0.01
2013-6-12,77.8,71.5,56.8,59.5,53.7,50.2,92,55,42,29.96,29.80,8,0,8,0.00
2013-6-13,81.8,72.4,56.4,56.8,53.5,37.5,87,52,38,30.10,29.95,6,0,6,0.00
2013-6-14,79.3,71.7,54.8,62.3,58.2,39.2,91,63,52,30.07,29.80,8,0,8,0.00
2013-6-15,78.2,72.5,63.6,64.1,56.7,48.7,92,59,40,29.87,29.79,7,0,7,0.00
2013-6-16,82.5,74.6,62.2,57.1,52.4,41.6,76,47,31,29.87,29.73,13,0,13,0.28
2013-6-17,78.2,66.2,56.2,61.0,56.7,46.9,90,72,52,30.07,29.82,9,0,9,0.00
2013-6-18,79.3,62.1,43.8,50.1,43.4,37.5,89,55,24,30.15,30.01,6,0,6,0.00
2013-6-19,86.7,70.8,51.4,62.2,57.0,48.1,94,65,37,30.03,29.88,7,0,7,0.00
2013-6-20,75.7,67.9,63.1,68.4,64.0,59.5,97,87,70,30.00,29.85,11,0,11,0.89
2013-6-21,81.8,69.8,62.3,68.6,64.2,60.8,97,83,55,30.02,29.64,14,0,14,0.69
2013-6-22,71.3,65.2,60.5,65.5,62.0,59.0,96,90,78,29.98,29.84,8,0,8,0.00
2013-6-23,77.5,68.4,59.0,68.0,62.4,57.9,98,83,61,29.84,29.47,22,2,22,0.28
2013-6-24,85.3,72.0,59.6,66.9,62.0,56.9,96,73,45,29.86,29.75,8,0,9,0.00
2013-6-25,90.5,75.9,64.0,70.9,66.8,63.1,98,76,47,29.78,29.64,9,0,9,0.00
2013-6-26,83.7,74.8,68.4,70.9,67.4,63.5,97,79,58,29.74,29.58,6,0,6,0.00
2013-6-27,81.0,74.6,66.9,66.1,63.2,57.4,91,69,48,29.76,29.73,11,0,11,0.00
2013-6-28,75.3,69.3,63.8,65.5,62.2,59.9,94,78,64,29.82,29.73,11,1,11,0.03
2013-6-29,78.0,67.9,59.3,63.3,58.5,50.4,97,75,39,30.01,29.79,9,0,9,0.17
2013-6-30,84.7,69.2,56.5,61.6,57.5,53.5,97,70,35,30.11,30.01,3,0,5,0.00
2013-7-1,87.0,72.0,59.0,63.7,58.7,53.1,95,67,34,30.20,30.12,4,0,4,0.00
2013-7-2,86.5,69.5,54.4,64.0,58.0,52.7,94,70,36,30.17,30.03,4,0,6,0.00
2013-7-3,88.2,71.3,57.1,64.2,58.8,54.5,95,69,34,30.04,29.89,6,0,6,0.00
2013-7-4,88.7,74.6,60.9,66.7,60.7,55.3,85,64,42,29.90,29.76,10,0,10,0.00
2013-7-5,88.3,77.8,70.6,70.3,64.0,58.9,87,63,47,29.77,29.70,11,1,11,0.00
2013-7-6,77.3,71.5,67.9,71.8,68.0,65.1,96,89,78,29.83,29.75,6,0,6,0.06
2013-7-7,88.5,76.3,67.5,74.2,69.9,65.0,98,82,56,29.89,29.76,5,0,5,0.00
2013-7-8,85.6,71.8,62.3,68.9,63.6,56.3,97,79,38,29.99,29.88,4,0,4,0.00
2013-7-9,81.2,71.3,65.0,72.7,66.7,57.1,97,86,67,29.93,29.73,9,0,9,0.09
2013-7-10,79.7,69.4,60.4,60.3,58.1,55.1,89,69,45,30.03,29.92,5,0,5,0.00
2013-7-11,85.2,71.5,57.6,63.1,59.6,55.1,96,69,43,30.08,29.87,10,0,10,0.00
2013-7-12,88.8,78.7,68.7,70.4,64.3,59.6,78,62,52,29.90,29.75,14,1,15,0.02
2013-7-13,77.5,73.8,70.8,70.9,68.1,65.3,91,83,75,30.00,29.80,10,0,10,0.01
2013-7-14,71.3,67.5,65.2,67.4,64.8,60.5,98,91,75,30.20,29.99,6,0,10,1.05
2013-7-15,86.0,73.1,66.2,75.1,69.1,65.5,99,89,58,30.20,30.10,4,0,6,0.03
2013-7-16,90.3,78.4,67.5,73.2,69.5,65.8,97,76,49,30.12,30.08,13,1,13,0.00
2013-7-17,90.2,80.3,71.2,73.4,70.8,68.4,92,74,53,30.16,30.02,14,1,14,0.00
2013-7-18,90.4,82.0,74.6,74.5,72.2,70.5,89,73,54,30.02,29.60,18,2,18,0.00
2013-7-19,82.3,75.6,69.2,74.8,65.1,59.2,87,71,51,29.83,29.61,10,0,12,0.00
2013-7-20,77.9,67.6,59.0,64.0,55.8,51.5,86,67,44,29.97,29.82,4,0,4,0.00
2013-7-21,82.1,68.9,55.9,67.3,59.4,52.4,91,73,50,29.95,29.71,8,0,8,0.00
2013-7-22,76.9,71.4,65.2,69.9,62.9,56.1,94,76,58,29.85,29.61,9,0,9,0.00
2013-7-23,75.8,66.0,57.4,58.7,55.2,52.3,90,70,46,30.02,29.85,5,0,5,0.00
2013-7-24,79.2,67.5,57.7,61.8,57.3,53.2,96,73,42,30.05,29.90,7,0,7,0.04
2013-7-25,79.0,67.0,60.7,66.3,62.2,58.4,97,86,58,29.93,29.83,11,0,11,0.17
2013-7-26,65.5,59.3,51.4,59.1,53.5,46.1,94,82,64,30.14,29.87,10,0,10,0.01
2013-7-27,63.7,56.2,51.6,52.1,48.1,45.1,87,75,60,30.13,29.96,11,0,11,0.00
2013-7-28,73.6,60.6,49.5,56.2,51.0,45.6,92,72,49,30.06,30.00,8,0,8,0.00
2013-7-29,76.0,63.4,51.1,61.3,55.5,49.7,97,78,47,30.11,30.04,6,0,7,0.00
2013-7-30,76.7,67.6,62.8,65.2,61.4,57.9,92,81,63,30.07,30.00,8,0,8,0.00
2013-7-31,74.5,67.8,61.4,63.1,57.3,51.4,96,72,46,30.03,29.97,7,0,20,0.00
2013-8-1,79.0,67.6,57.3,60.4,56.0,52.2,84,68,44,30.00,29.83,5,0,5,0.00
2013-8-2,75.5,66.8,59.5,58.1,55.7,51.6,92,69,44,30.05,29.84,6,0,6,0.00
2013-8-3,74.4,64.2,54.6,57.6,53.4,48.4,96,71,43,30.23,30.05,5,0,5,0.00
2013-8-4,76.0,62.2,48.1,58.7,53.5,46.2,98,75,47,30.25,29.96,6,0,6,0.00
2013-8-5,78.9,67.4,60.9,66.3,60.5,54.7,92,79,59,29.97,29.78,9,0,9,0.00
2013-8-6,75.8,63.1,54.0,65.1,59.2,52.6,96,88,61,29.83,29.70,6,0,8,0.06
2013-8-7,76.3,64.2,55.5,60.3,54.9,50.7,94,75,43,30.00,29.80,7,0,7,0.00
2013-8-8,74.8,62.4,55.0,63.0,56.6,52.9,95,82,58,30.05,29.96,8,0,8,0.01
2013-8-9,68.5,61.7,53.3,57.7,54.6,51.6,96,78,57,30.12,29.98,7,0,7,0.00
2013-8-10,77.3,65.9,57.5,58.9,56.0,50.7,93,73,42,30.18,30.07,7,0,7,0.00
2013-8-11,79.3,66.0,53.9,61.9,57.6,51.6,97,77,50,30.08,29.99,5,0,5,0.00
2013-8-12,76.7,65.5,57.1,64.9,57.2,51.2,96,76,47,30.10,30.00,5,0,5,0.05
2013-8-13,76.5,62.1,50.5,57.6,51.4,46.6,96,72,38,30.21,30.10,6,0,6,0.00
2013-8-14,78.2,62.5,50.2,58.4,52.9,48.5,96,74,38,30.20,30.07,6,0,7,0.00
2013-8-15,81.5,66.1,53.0,59.4,55.2,50.6,97,72,37,30.12,30.04,6,0,6,0.00
2013-8-16,80.9,69.4,57.6,63.6,58.6,54.2,95,71,44,30.14,30.08,11,0,11,0.00
2013-8-17,82.4,69.2,58.2,63.5,59.3,55.9,94,73,46,30.14,30.01,15,1,15,0.00
2013-8-18,82.0,71.6,62.2,63.7,60.6,58.1,88,70,51,30.06,29.90,14,1,14,0.00
2013-8-19,86.8,75.6,67.6,72.4,67.4,61.7,89,76,59,29.91,29.81,10,0,10,0.00
2013-8-20,91.6,78.8,69.0,75.4,71.3,67.6,96,80,53,29.83,29.73,11,0,11,0.00
2013-8-21,87.0,77.3,66.6,73.7,66.5,57.1,97,72,39,30.02,29.72,9,0,9,0.00
2013-8-22,81.8,70.7,57.7,57.1,52.6,46.4,84,55,33,30.15,30.00,5,0,5,0.00
2013-8-23,87.3,68.8,52.9,64.8,57.3,50.3,95,71,35,30.15,29.96,8,0,8,0.00
2013-8-24,91.3,78.8,68.6,73.2,69.5,64.2,92,75,52,29.98,29.78,13,1,13,0.00
2013-8-25,92.7,82.3,74.9,80.2,74.8,72.3,93,79,58,29.88,29.80,12,0,12,0.02
2013-8-26,94.5,80.1,71.9,80.2,75.5,70.5,98,87,60,29.90,29.76,11,0,11,0.50
2013-8-27,91.3,76.5,70.6,74.3,71.6,69.5,98,86,55,29.91,29.75,5,0,5,0.00
2013-8-28,83.6,75.0,69.1,76.7,72.0,68.1,98,91,73,29.99,29.89,1,0,1,0.00
2013-8-29,86.8,75.2,67.9,79.8,72.1,66.4,98,91,68,29.97,29.75,7,0,7,0.04
2013-8-30,84.3,71.8,63.8,70.6,66.1,62.0,97,84,56,29.96,29.82,8,0,8,0.01
2013-8-31,88.8,71.7,63.3,71.2,65.6,61.5,97,83,51,29.88,29.65,7,1,13,0.01
2013-9-1,69.6,64.7,59.0,65.6,58.6,50.4,91,81,69,30.01,29.68,8,1,12,0.00
2013-9-2,70.3,59.2,52.3,55.3,51.6,49.5,93,77,51,30.12,30.01,7,0,7,0.00
2013-9-3,81.0,65.0,50.0,63.7,57.3,48.9,97,78,50,30.07,29.94,12,1,12,0.00
2013-9-4,75.4,68.2,55.6,63.0,59.3,51.2,87,74,54,30.17,29.96,5,0,6,0.00
2013-9-5,55.4,52.6,51.0,51.8,50.3,49.2,95,92,86,30.24,30.17,1,0,1,0.00
2013-10-2,73.4,57.0,43.9,53.6,49.5,41.5,95,80,35,30.04,29.91,6,0,6,0.56
2013-10-3,57.0,52.7,49.2,53.4,51.0,48.1,100,94,83,30.05,29.92,7,0,7,0.28
2013-10-4,57.4,52.7,50.2,51.2,49.1,45.9,96,88,76,30.10,29.95,13,1,13,0.05
2013-10-5,52.2,50.2,48.0,51.1,48.9,46.2,100,95,82,29.95,29.76,16,1,16,0.66
2013-10-6,56.2,49.1,46.5,48.4,46.2,44.4,97,90,67,29.84,29.74,10,0,10,0.01
2013-10-7,67.1,53.2,46.3,47.5,44.6,40.6,91,75,40,29.96,29.82,6,0,6,0.00
2013-10-8,77.3,60.4,44.9,52.9,47.6,42.4,92,66,39,29.92,29.68,9,1,16,0.00
2013-10-9,73.7,62.1,54.0,55.6,51.6,48.1,93,70,50,30.00,29.80,11,1,11,0.00
2013-10-10,75.9,62.4,53.4,58.1,52.9,48.4,89,72,51,30.00,29.82,10,0,10,0.00
2013-10-11,72.5,60.6,53.5,59.2,54.8,51.1,94,82,56,29.84,29.50,16,1,16,0.32
2013-10-12,57.3,50.4,47.4,55.0,46.4,44.0,93,86,79,30.17,29.55,26,4,26,0.02
2013-10-13,58.2,47.5,37.3,44.2,39.5,34.1,95,76,44,30.42,30.17,10,1,10,0.00
2013-10-14,49.9,44.7,40.4,44.8,41.9,38.3,95,90,68,30.43,30.07,10,0,10,0.27
2013-10-15,46.9,44.9,43.5,45.5,43.5,42.1,96,95,92,30.07,29.81,15,1,15,0.92
2013-10-16,56.9,45.8,39.2,42.5,39.6,34.9,96,80,51,29.98,29.86,11,1,11,0.00
2013-10-17,51.2,44.8,38.8,46.1,41.9,36.6,94,90,78,29.92,29.80,12,1,12,0.05
2013-10-18,49.2,42.8,37.1,40.5,35.9,32.3,92,77,55,29.99,29.81,13,2,13,0.01
2013-10-19,46.1,40.8,32.5,37.1,34.5,29.4,92,79,54,29.82,29.70,9,2,9,0.00
2013-10-20,38.7,34.9,31.3,36.7,32.5,25.8,100,91,70,29.93,29.73,20,2,20,0.29
2013-10-21,36.7,34.4,31.3,31.5,27.9,23.4,83,77,69,29.99,29.92,20,6,20,0.00
2013-10-22,41.9,36.5,34.4,36.1,32.6,30.5,91,86,73,30.07,29.98,12,2,12,0.03
2013-10-23,35.2,33.6,32.1,32.6,26.5,22.5,90,75,63,30.16,30.02,16,4,16,0.00
2013-10-24,40.7,37.0,33.5,32.5,30.2,25.8,89,77,62,30.32,30.16,13,4,13,0.00
2013-10-25,54.9,42.3,30.7,42.4,34.2,28.0,93,74,55,30.32,29.73,24,3,24,0.00
2013-10-26,47.4,39.7,35.1,35.8,31.4,28.1,78,72,56,30.14,29.82,21,5,21,0.00
2013-10-27,50.3,40.1,33.9,35.4,30.8,24.8,82,70,52,30.29,29.79,16,2,16,0.00
2013-10-28,40.6,31.3,25.4,24.4,21.3,17.9,85,67,47,30.56,30.26,9,0,9,0.00
2013-10-29,34.7,31.6,26.4,32.9,28.5,21.1,95,88,81,30.52,30.17,4,0,4,0.06
2013-10-30,42.5,38.2,34.2,41.4,37.1,32.8,97,96,95,30.19,29.71,5,0,5,0.11
2013-10-31,42.3,40.8,39.9,41.5,39.9,38.8,100,96,94,29.74,29.42,8,2,10,0.02
2013-11-1,43.9,39.8,35.7,39.0,35.5,31.8,95,85,71,29.90,29.45,13,3,13,0.00
2013-11-2,47.4,37.9,32.5,35.4,32.3,29.8,92,81,60,30.11,29.89,12,1,13,0.00
2013-11-3,53.6,43.6,31.4,36.8,34.2,28.8,93,71,50,30.10,29.82,15,2,15,0.00
2013-11-4,47.5,42.9,35.3,41.6,36.0,30.0,93,77,63,30.12,29.78,14,2,14,0.06
2013-11-5,36.1,34.1,31.0,30.4,26.9,24.2,84,75,66,30.27,30.12,10,1,10,0.00
2013-11-6,38.2,32.0,24.8,27.6,23.0,19.4,87,70,52,30.21,30.10,13,2,13,0.00
2013-11-7,38.2,30.8,23.8,27.6,24.2,20.9,92,77,55,30.27,30.20,11,1,11,0.00
2013-11-8,39.8,32.6,22.5,32.6,27.4,20.0,93,81,66,30.21,29.61,11,1,11,0.02
2013-11-9,38.6,36.9,34.2,36.5,32.8,29.2,100,85,73,30.24,29.62,22,6,22,0.02
2013-11-10,39.7,35.3,25.4,31.5,27.8,12.9,84,74,59,30.33,30.15,20,4,20,0.00
2013-11-11,25.2,18.8,16.1,15.2,10.9,8.9,78,71,59,30.82,30.25,21,4,21,0.00
2013-11-12,32.0,22.1,13.5,17.2,11.2,8.4,86,65,40,30.84,30.38,16,2,16,0.00
2013-11-13,51.0,35.4,24.4,35.1,26.8,17.0,82,71,53,30.38,29.84,19,1,19,0.00
2013-11-14,50.1,39.6,33.4,36.4,33.8,30.8,92,80,59,29.85,29.74,6,0,6,0.00
2013-11-15,53.1,40.9,30.6,39.7,35.0,29.3,96,81,55,29.85,29.56,15,0,15,0.00
2013-11-16,44.2,42.7,40.1,42.5,39.9,36.3,96,90,77,29.56,29.27,10,1,10,0.08
2013-11-17,42.2,36.8,27.4,41.1,34.1,22.2,97,90,80,29.85,29.26,24,7,24,0.01
2013-11-18,27.6,25.3,18.1,23.0,20.1,15.4,91,81,74,30.31,29.85,24,6,24,0.00
2013-11-19,43.7,31.7,17.8,33.0,24.7,15.6,93,76,58,30.31,29.81,21,1,21,0.00
2013-11-20,47.8,42.7,36.4,34.6,32.3,30.9,85,67,54,30.06,29.80,8,1,16,0.00
2013-11-21,36.4,26.0,18.4,33.9,20.8,13.0,92,81,71,30.63,30.05,19,5,19,0.00
2013-11-22,24.9,16.0,9.5,17.4,9.6,4.0,88,76,61,30.78,30.53,20,5,20,0.00
2013-11-23,15.1,9.5,3.9,5.5,2.9,-0.9,86,75,55,30.95,30.77,16,3,16,0.00
2013-11-24,37.4,22.9,3.5,27.1,12.9,-1.4,93,66,48,30.78,29.83,20,2,20,0.00
2013-11-25,36.7,33.0,24.5,29.0,25.5,17.7,83,74,62,30.12,29.82,21,6,21,0.00
2013-11-26,24.6,17.1,12.8,20.2,9.5,6.1,84,72,60,30.49,30.12,22,6,22,0.00
2013-11-27,20.4,14.4,4.8,14.3,8.4,1.0,89,77,67,30.49,30.15,5,0,7,0.00
2013-11-28,22.2,18.3,7.2,15.7,11.9,3.3,92,76,64,30.60,30.16,12,2,12,0.00
2013-11-29,29.0,20.2,5.4,21.8,13.6,1.6,89,76,62,30.60,30.12,14,0,14,0.00
2013-11-30,34.2,27.8,23.1,25.4,22.4,20.4,90,80,68,30.25,30.07,8,1,10,0.00
2013-12-1,26.9,24.2,22.9,22.6,21.5,20.3,98,89,83,30.25,29.98,6,0,6,0.00
2013-12-2,32.1,28.6,23.8,30.9,26.9,21.8,100,93,91,29.99,29.67,8,0,8,0.00
2013-12-3,33.0,31.3,28.6,31.7,29.8,26.6,100,94,92,29.92,29.67,0,0,0,0.00
2013-12-4,28.8,23.0,14.8,27.0,20.9,11.7,93,91,88,29.91,29.55,0,0,0,0.00
2013-12-5,14.6,3.9,-6.2,11.7,-0.5,-10.5,92,81,76,30.41,29.67,14,2,14,0.00
2013-12-6,0.8,-7.2,-13.8,-5.1,-12.0,-18.9,92,79,74,30.75,30.40,9,0,9,0.00
2013-12-7,-2.0,-11.9,-21.5,-9.1,-17.3,-26.8,89,76,69,30.80,30.69,16,1,16,0.00
2013-12-8,8.6,-3.8,-18.8,4.1,-8.2,-24.1,96,81,76,30.69,30.13,5,0,5,0.00
2013-12-9,-0.3,-4.1,-8.5,-4.0,-9.0,-13.5,92,79,71,30.15,29.94,13,1,13,0.00
2013-12-10,4.2,-2.5,-9.7,-0.7,-7.1,-14.2,92,80,73,30.43,29.92,12,1,12,0.00
2013-12-11,-0.8,-7.2,-14.0,-5.8,-13.0,-19.0,81,75,66,30.65,30.37,11,1,11,0.00
2013-12-12,13.6,5.8,-3.9,8.7,1.0,-8.2,92,80,75,30.38,30.26,6,0,6,0.00
2013-12-13,10.7,4.0,1.0,7.4,-2.9,-7.3,92,73,63,30.49,30.29,6,0,8,0.00
2013-12-14,8.1,2.2,-4.9,3.4,-2.8,-9.7,82,79,76,30.48,30.19,11,1,11,0.00
2013-12-15,-2.4,-6.7,-13.1,-8.5,-12.8,-18.0,80,74,64,30.33,30.23,11,0,11,0.00
2013-12-16,28.5,9.0,-2.5,26.6,4.6,-9.3,93,82,71,30.23,29.88,15,1,15,0.00
2013-12-17,30.3,17.3,-0.6,28.3,12.1,-4.7,94,80,68,30.17,29.87,18,5,26,0.00
2013-12-18,28.6,17.0,2.6,19.4,11.7,-0.9,90,79,67,30.14,29.67,11,1,11,0.01
2013-12-19,20.2,10.0,3.1,15.6,4.3,-1.7,89,77,68,30.28,29.93,16,1,16,0.00
2013-12-20,17.0,5.2,-4.5,10.9,1.2,-8.8,97,83,75,30.23,29.97,3,0,3,0.00
2013-12-21,15.0,10.9,5.3,10.0,7.1,2.0,89,84,79,30.18,29.95,7,0,7,0.00
2013-12-22,12.7,7.5,0.1,8.9,3.5,-4.5,92,83,79,30.41,30.11,11,2,11,0.00
2013-12-23,-0.1,-7.2,-19.8,-4.5,-12.8,-25.4,81,76,68,30.67,30.40,10,1,10,0.00
2013-12-24,9.3,-4.7,-23.3,6.0,-10.2,-28.9,86,77,57,30.63,30.18,11,0,11,0.00
2013-12-25,21.7,13.4,7.9,18.0,9.5,3.3,89,84,73,30.21,30.11,14,2,14,0.00
2013-12-26,20.6,15.8,9.0,16.5,11.9,5.4,87,84,78,30.23,30.15,4,0,4,0.00
2013-12-27,39.2,30.2,19.8,32.6,26.5,16.3,92,86,75,30.20,29.85,18,2,18,0.10
2013-12-28,32.8,26.8,5.8,31.2,24.2,-0.4,95,90,76,30.26,29.76,18,2,20,0.01
2013-12-29,5.6,-7.7,-17.3,-0.3,-15.5,-22.8,78,68,50,30.50,30.26,11,2,16,0.00
2013-12-30,0.8,-9.7,-20.1,-4.9,-14.7,-25.8,82,78,73,30.41,30.33,2,0,2,0.00
2013-12-31,-6.5,-11.8,-18.0,-12.1,-17.5,-23.3,89,75,66,30.61,30.32,6,0,8,0.00
2014-1-1,-2.3,-8.9,-14.5,-11.8,-16.1,-19.7,78,70,59,30.69,30.59,2,0,2,0.00
2014-1-2,2.1,-12.5,-23.5,-11.1,-19.4,-29.1,79,71,52,30.70,30.43,4,0,4,0.00